Davison, MI

03:23 AM EDT 2015 abuztua ren 04 an (GMT -0400)
Burton - wxbeacon.com | | Change Station
CLOSE
Current Station
Personal Weather Stations
Location: Burton, MI
Elevation: 766 ft
Nearby Weather Stations

Elev 766 ft 43.03 °N, 83.59 °W | Updated 2 minutes ago

Goraki estalia
Goraki estalia
59.0 °F
Feels Like 59.0 °F
N
0.0
Haizea Aldagarria Haizea from MIM
Gusts 0.0 mph

Gaur
High -- | Low -- °F
--% Chance of Precip.
Yesterday
High -- | Low -- °F
Precip. -- in
6:27 AM 8:51 PM
Waning Gibbous, 80% visible
Presioa 29.86 in
Ikusgaitasuna 10.0 Miliak
Clouds Estalia 10000 ft
Ihintzaren maila 54 °F
Afoinua 85%
Rainfall 0.00 in
Snow Depth Not available.
UV 0 out of 12
Pollen 3.70 out of 12
Air Quality Not available.
Flu Activity Not available.
METAR KFNT 040653Z AUTO 24003KT 10SM OVC100 17/12 A2987 RMK AO2 SLP111 T01670122

More Conditions Fewer Conditions

Presioa 29.86 in
Ikusgaitasuna 10.0 Miliak
Clouds Estalia 10000 ft
Ihintzaren maila 54 °F
Afoinua 85%
Rainfall 0.00 in
Snow Depth Not available.
UV 0 out of 12
Pollen 3.70 out of 12
Air Quality Not available.
Flu Activity Not available.
METAR KFNT 040653Z AUTO 24003KT 10SM OVC100 17/12 A2987 RMK AO2 SLP111 T01670122

More Conditions Fewer Conditions

10-Day Weather Forecast

×

Almanac

Astronomy

Aug. 04, 2015 Rise Set
Actual Time
Civil Twilight
Nautical Twilight
Astronomical Twilight
Moon
Length Of Visible Light
Length of Day
Tomorrow will be .
, % of the Moon is Illuminated

Today's Extremes

State Highs State Lows

Community

WunderPhotos

Upload Photos

1,843,877 photos uploaded!

WunderBlogs® & News

Nearby

Air Quality

  Air Quality AQ Index Pollutant
Not available.

Snow Depth

Station Depth Elevation

Earthquake Activity

City Distance Mag. Time & Date
Minimum magnitude displayed is 2.5.

Coastal Water Temperatures

Lekua Tenperatura

Stations

Nearby Weather Stations

Station Location Temp Izozki haizeak Ihintzaren maila Afoinua Haizea Precip. Elev Eguneratuta Type